Time;durP1;ratioP1;P1;durP2;ratioP2;P2;SDS_P1;SDS_P2;PMS_P1;PMS_P2;Temp;Humidity;BMP_temperature;BMP_pressure;BME280_temperature;BME280_humidity;BME280_pressure;Samples;Min_cycle;Max_cycle;Signal;HPM_P1;HPM_P2
2023/08/01 00:00:29;;;;;;;19.17;8.05;;;;;;;16.01;100.00;99745.84;5103750;28;20055;-77
2023/08/01 00:02:54;;;;;;;22.08;8.50;;;;;;;16.00;100.00;99737.88;5108403;28;20028;-77
2023/08/01 00:05:19;;;;;;;18.70;7.40;;;;;;;15.98;100.00;99727.22;5087833;28;20047;-77
2023/08/01 00:07:45;;;;;;;19.95;8.00;;;;;;;15.97;100.00;99732.81;5094437;28;20474;-77
2023/08/01 00:10:10;;;;;;;17.77;7.32;;;;;;;15.95;100.00;99730.28;5097576;28;20103;-77
2023/08/01 00:12:35;;;;;;;20.60;7.97;;;;;;;15.93;100.00;99726.94;5095587;28;20016;-77
2023/08/01 00:15:01;;;;;;;22.58;8.63;;;;;;;15.90;100.00;99722.69;5097259;28;20060;-76
2023/08/01 00:17:27;;;;;;;20.52;7.68;;;;;;;15.88;100.00;99723.88;5091529;28;20028;-76
2023/08/01 00:19:52;;;;;;;17.75;6.40;;;;;;;15.84;100.00;99726.13;5105242;28;20028;-76
2023/08/01 00:22:18;;;;;;;20.13;7.47;;;;;;;15.83;100.00;99734.41;5097392;28;20550;-76
2023/08/01 00:24:43;;;;;;;19.83;7.07;;;;;;;15.83;100.00;99747.97;5105940;28;20107;-76
2023/08/01 00:27:10;;;;;;;20.17;7.70;;;;;;;15.81;100.00;99729.16;5101579;28;20023;-76
2023/08/01 00:29:35;;;;;;;20.85;7.65;;;;;;;15.79;100.00;99738.47;5093071;28;20489;-76
2023/08/01 00:32:01;;;;;;;20.38;8.40;;;;;;;15.77;100.00;99733.22;5089955;28;20027;-76
2023/08/01 00:34:26;;;;;;;19.50;7.78;;;;;;;15.80;100.00;99721.19;5086065;28;20025;-76
2023/08/01 00:36:51;;;;;;;21.67;8.82;;;;;;;15.79;100.00;99719.53;5097718;28;20103;-76
2023/08/01 00:39:17;;;;;;;17.52;6.68;;;;;;;15.75;100.00;99715.44;5090342;28;20075;-76
2023/08/01 00:41:42;;;;;;;18.83;7.20;;;;;;;15.73;100.00;99712.91;5107424;28;20039;-76
2023/08/01 00:44:07;;;;;;;20.52;7.43;;;;;;;15.71;100.00;99718.50;5093349;28;20111;-76
2023/08/01 00:46:33;;;;;;;20.92;7.47;;;;;;;15.69;100.00;99725.09;5106911;28;20042;-76
2023/08/01 00:49:00;;;;;;;19.13;7.47;;;;;;;15.68;100.00;99712.56;5099869;28;20012;-76
2023/08/01 00:51:26;;;;;;;19.38;7.57;;;;;;;15.64;100.00;99717.50;5105028;28;20379;-76
2023/08/01 00:53:51;;;;;;;18.15;7.45;;;;;;;15.65;100.00;99712.91;5101116;28;20031;-76
2023/08/01 00:56:17;;;;;;;20.13;8.02;;;;;;;15.62;100.00;99724.94;5110673;28;20027;-76
2023/08/01 00:58:42;;;;;;;21.20;8.25;;;;;;;15.59;100.00;99725.28;5099062;28;20031;-76
2023/08/01 01:01:08;;;;;;;20.70;7.30;;;;;;;15.58;100.00;99728.16;5086765;28;20027;-76
2023/08/01 01:03:33;;;;;;;23.13;7.78;;;;;;;15.54;100.00;99720.38;5119018;28;20030;-76
2023/08/01 01:06:23;;;;;;;23.60;8.02;;;;;;;15.52;100.00;99722.44;5102331;28;20023;-76
2023/08/01 01:08:48;;;;;;;20.52;7.10;;;;;;;15.48;100.00;99712.13;5098091;28;20485;-76
2023/08/01 01:11:14;;;;;;;20.15;7.15;;;;;;;15.47;100.00;99715.84;5094121;28;20110;-76
2023/08/01 01:13:40;;;;;;;18.98;6.95;;;;;;;15.43;100.00;99709.91;5104714;28;20035;-76
2023/08/01 01:16:05;;;;;;;18.70;7.00;;;;;;;15.42;100.00;99712.78;5088834;28;20408;-76
2023/08/01 01:18:30;;;;;;;21.60;7.18;;;;;;;15.37;100.00;99706.06;5097240;28;20115;-76
2023/08/01 01:20:56;;;;;;;21.33;7.45;;;;;;;15.36;100.00;99709.78;5096288;28;20047;-76
2023/08/01 01:23:22;;;;;;;20.90;6.55;;;;;;;15.31;100.00;99706.72;5109832;28;20028;-76
2023/08/01 01:25:50;;;;;;;22.08;6.55;;;;;;;15.28;100.00;99711.63;5110049;28;20501;-76
2023/08/01 01:28:17;;;;;;;19.88;6.55;;;;;;;15.27;100.00;99712.66;5103994;28;20473;-76
2023/08/01 01:30:43;;;;;;;19.60;6.57;;;;;;;15.26;100.00;99709.09;5112211;28;20043;-76
2023/08/01 01:33:09;;;;;;;18.05;6.85;;;;;;;15.23;100.00;99711.28;5082301;28;20044;-76
2023/08/01 01:35:35;;;;;;;18.05;6.68;;;;;;;15.21;100.00;99716.88;5100428;28;20050;-76
2023/08/01 01:38:03;;;;;;;18.67;6.20;;;;;;;15.16;100.00;99709.28;5111110;28;20106;-76
2023/08/01 01:40:29;;;;;;;18.73;6.97;;;;;;;15.15;100.00;99695.91;5114812;28;20020;-76
2023/08/01 01:42:55;;;;;;;18.17;6.90;;;;;;;15.12;100.00;99698.97;5093715;28;20055;-75
2023/08/01 01:45:20;;;;;;;18.65;6.82;;;;;;;15.14;100.00;99705.91;5100935;28;20055;-76
2023/08/01 01:47:45;;;;;;;23.17;7.43;;;;;;;15.15;100.00;99704.03;5106837;28;20029;-76
2023/08/01 01:50:11;;;;;;;20.15;6.93;;;;;;;15.14;100.00;99695.09;5111137;28;20027;-76
2023/08/01 01:52:36;;;;;;;22.45;7.63;;;;;;;15.10;100.00;99698.31;5101127;28;20051;-76
2023/08/01 01:55:02;;;;;;;21.80;7.22;;;;;;;15.08;100.00;99700.31;5110540;28;20518;-76
2023/08/01 01:57:27;;;;;;;22.92;8.35;;;;;;;15.05;100.00;99706.06;5110087;28;20020;-76
2023/08/01 01:59:52;;;;;;;17.15;6.43;;;;;;;15.01;100.00;99698.28;5110996;28;20037;-76
2023/08/01 02:02:18;;;;;;;21.30;7.32;;;;;;;14.98;100.00;99704.06;5102118;28;20383;-76
2023/08/01 02:04:46;;;;;;;19.95;7.57;;;;;;;14.96;100.00;99703.34;5094007;28;20029;-76
2023/08/01 02:07:11;;;;;;;23.55;8.43;;;;;;;14.95;100.00;99696.28;5106494;28;20027;-76
2023/08/01 02:09:36;;;;;;;22.27;7.85;;;;;;;14.93;100.00;99694.75;5112622;28;20028;-76
2023/08/01 02:12:04;;;;;;;20.63;8.10;;;;;;;14.90;100.00;99704.03;5101703;28;20028;-76
2023/08/01 02:14:29;;;;;;;26.25;8.60;;;;;;;14.86;100.00;99699.97;5110584;28;20053;-76
2023/08/01 02:16:55;;;;;;;22.13;8.48;;;;;;;14.83;100.00;99703.88;5114031;28;20028;-76
2023/08/01 02:19:20;;;;;;;21.70;8.30;;;;;;;14.82;100.00;99704.88;5114320;28;20051;-76
2023/08/01 02:21:45;;;;;;;26.15;9.27;;;;;;;14.81;100.00;99705.91;5114841;28;20039;-76
2023/08/01 02:24:11;;;;;;;25.20;9.68;;;;;;;14.78;100.00;99694.59;5106096;28;20395;-76
2023/08/01 02:26:36;;;;;;;22.75;9.73;;;;;;;14.76;100.00;99700.16;5115692;28;20046;-75
2023/08/01 02:29:02;;;;;;;27.15;11.68;;;;;;;14.76;100.00;99699.28;5117872;28;20452;-76
2023/08/01 02:31:27;;;;;;;23.58;10.55;;;;;;;14.78;100.00;99705.41;5107951;28;20540;-76
2023/08/01 02:33:52;;;;;;;22.15;9.57;;;;;;;14.77;100.00;99695.59;5108856;28;20126;-76
2023/08/01 02:36:18;;;;;;;22.95;10.68;;;;;;;14.80;100.00;99708.78;5113589;28;20038;-76
2023/08/01 02:38:43;;;;;;;26.75;10.80;;;;;;;14.82;100.00;99712.16;5094764;28;20036;-76
2023/08/01 02:41:08;;;;;;;23.90;9.98;;;;;;;14.81;100.00;99710.47;5129344;28;20024;-76
2023/08/01 02:43:36;;;;;;;23.17;10.10;;;;;;;14.82;100.00;99717.59;5120421;27;20034;-76
2023/08/01 02:46:01;;;;;;;27.45;11.98;;;;;;;14.83;100.00;99720.13;5105249;28;20055;-76
2023/08/01 02:48:27;;;;;;;24.35;11.02;;;;;;;14.83;100.00;99714.72;5100722;28;20016;-77
2023/08/01 02:50:52;;;;;;;25.98;12.00;;;;;;;14.85;100.00;99728.91;5104994;28;20028;-76
2023/08/01 02:53:17;;;;;;;25.63;11.55;;;;;;;14.86;100.00;99724.31;5104581;28;20032;-77
2023/08/01 02:55:46;;;;;;;23.58;10.75;;;;;;;14.85;100.00;99726.19;5105008;28;20039;-76
2023/08/01 02:58:11;;;;;;;27.25;11.55;;;;;;;14.87;100.00;99727.88;5107285;28;20073;-76
2023/08/01 03:00:40;;;;;;;24.58;11.45;;;;;;;14.86;100.00;99729.72;5116593;28;20088;-76
2023/08/01 03:03:06;;;;;;;25.33;11.90;;;;;;;14.88;100.00;99721.47;5111355;28;20036;-76
2023/08/01 03:05:31;;;;;;;26.67;12.75;;;;;;;14.87;100.00;99715.19;5108698;28;20024;-76
2023/08/01 03:07:57;;;;;;;23.80;12.95;;;;;;;14.88;100.00;99705.25;5117847;28;20043;-76
2023/08/01 03:10:22;;;;;;;31.25;13.27;;;;;;;14.88;100.00;99706.06;5113458;28;20043;-76
2023/08/01 03:12:47;;;;;;;28.05;12.65;;;;;;;14.89;100.00;99705.06;5105791;28;20032;-76
2023/08/01 03:15:13;;;;;;;31.77;13.30;;;;;;;14.87;100.00;99715.19;5103392;28;20035;-76
2023/08/01 03:17:38;;;;;;;31.25;14.45;;;;;;;14.87;100.00;99715.19;5105158;28;20031;-76
2023/08/01 03:20:04;;;;;;;27.60;14.75;;;;;;;14.87;100.00;99719.78;5102515;28;20021;-76
2023/08/01 03:22:30;;;;;;;28.08;14.68;;;;;;;14.88;100.00;99708.78;5104245;28;20059;-76
2023/08/01 03:24:55;;;;;;;32.03;15.40;;;;;;;14.88;100.00;99711.50;5095151;28;20353;-76
2023/08/01 03:27:20;;;;;;;26.92;14.25;;;;;;;14.90;100.00;99720.28;5113277;28;20032;-76
2023/08/01 03:29:45;;;;;;;31.83;15.38;;;;;;;14.90;100.00;99714.84;5102946;28;20471;-76
2023/08/01 03:32:11;;;;;;;29.95;15.20;;;;;;;14.91;100.00;99721.13;5112497;28;20075;-76
2023/08/01 03:34:37;;;;;;;30.60;15.70;;;;;;;14.93;100.00;99719.09;5094523;28;20025;-76
2023/08/01 03:37:04;;;;;;;35.95;16.23;;;;;;;14.92;100.00;99717.41;5086466;28;20053;-76
2023/08/01 03:39:29;;;;;;;33.08;14.57;;;;;;;14.91;100.00;99721.97;5091069;28;20449;-76
2023/08/01 03:41:55;;;;;;;28.33;16.67;;;;;;;14.93;100.00;99719.09;5116324;28;20028;-76
2023/08/01 03:44:20;;;;;;;30.45;16.20;;;;;;;14.93;100.00;99719.09;5086372;28;20024;-76
2023/08/01 03:46:47;;;;;;;30.35;18.05;;;;;;;14.94;100.00;99723.50;5087944;28;20497;-76
2023/08/01 03:49:12;;;;;;;31.13;16.50;;;;;;;14.92;100.00;99723.66;5110712;28;20479;-76
2023/08/01 03:51:38;;;;;;;32.67;19.08;;;;;;;14.95;100.00;99722.47;5114191;28;20028;-76
2023/08/01 03:54:03;;;;;;;34.80;18.00;;;;;;;14.93;100.00;99730.75;5115573;28;20055;-76
2023/08/01 03:56:29;;;;;;;32.08;17.45;;;;;;;14.94;100.00;99715.38;5116073;27;20019;-76
2023/08/01 03:58:54;;;;;;;30.20;17.48;;;;;;;14.94;100.00;99723.50;5093008;28;20571;-76
2023/08/01 04:01:20;;;;;;;31.92;17.42;;;;;;;14.96;100.00;99718.75;5111014;28;20053;-76
2023/08/01 04:03:46;;;;;;;38.90;17.48;;;;;;;14.96;100.00;99719.59;5106005;28;20035;-76
2023/08/01 04:06:15;;;;;;;31.90;16.92;;;;;;;14.98;100.00;99717.56;5100896;28;20035;-76
2023/08/01 04:08:40;;;;;;;32.67;17.83;;;;;;;14.96;100.00;99716.88;5104530;28;20019;-76
2023/08/01 04:11:06;;;;;;;37.70;19.02;;;;;;;14.97;100.00;99718.59;5113867;28;20093;-76
2023/08/01 04:13:31;;;;;;;30.52;18.17;;;;;;;14.99;100.00;99719.28;5097652;28;20028;-76
2023/08/01 04:15:56;;;;;;;34.20;18.60;;;;;;;14.96;100.00;99725.00;5113596;28;20065;-76
2023/08/01 04:18:22;;;;;;;32.45;18.10;;;;;;;14.95;100.00;99723.31;5113243;28;20020;-76
2023/08/01 04:20:47;;;;;;;33.90;18.33;;;;;;;14.96;100.00;99730.41;5093677;28;20029;-76
2023/08/01 04:23:13;;;;;;;34.08;17.30;;;;;;;14.94;100.00;99721.63;5111392;28;20474;-76
2023/08/01 04:25:41;;;;;;;33.58;17.73;;;;;;;14.93;100.00;99724.50;5099190;28;20049;-76
2023/08/01 04:28:06;;;;;;;34.75;17.60;;;;;;;14.94;100.00;99721.63;5102681;28;20020;-76
2023/08/01 04:30:33;;;;;;;33.20;17.63;;;;;;;14.95;100.00;99719.75;5103396;28;20074;-76
2023/08/01 04:32:58;;;;;;;34.65;18.40;;;;;;;14.92;100.00;99718.25;5099447;28;20321;-76
2023/08/01 04:35:23;;;;;;;33.70;18.15;;;;;;;14.94;100.00;99713.50;5083851;28;20081;-76
2023/08/01 04:37:49;;;;;;;32.97;16.45;;;;;;;14.97;100.00;99724.00;5101915;28;20024;-76
2023/08/01 04:40:14;;;;;;;31.00;17.27;;;;;;;14.97;100.00;99724.00;5116080;28;20034;-76
2023/08/01 04:42:39;;;;;;;32.38;17.92;;;;;;;14.98;100.00;99720.28;5105227;28;20047;-76
2023/08/01 04:45:06;;;;;;;33.03;17.90;;;;;;;15.01;100.00;99717.25;5108328;28;20047;-76
2023/08/01 04:47:32;;;;;;;36.63;18.13;;;;;;;15.00;100.00;99720.13;5094262;28;20039;-77
2023/08/01 04:49:57;;;;;;;32.15;17.23;;;;;;;15.03;100.00;99731.44;5083745;28;20115;-78
2023/08/01 04:52:23;;;;;;;30.40;16.45;;;;;;;15.01;100.00;99738.06;5105721;28;20092;-76
2023/08/01 04:54:48;;;;;;;30.27;15.90;;;;;;;15.00;100.00;99742.59;5106907;28;20043;-76
2023/08/01 04:57:13;;;;;;;34.22;18.38;;;;;;;15.01;100.00;99749.72;5108527;28;20436;-76
2023/08/01 04:59:39;;;;;;;30.10;16.60;;;;;;;15.02;100.00;99742.41;5096820;28;20032;-76
2023/08/01 05:02:04;;;;;;;31.45;17.02;;;;;;;15.03;100.00;99736.00;5106773;28;20052;-76
2023/08/01 05:04:29;;;;;;;33.28;17.90;;;;;;;15.02;100.00;99743.28;5092569;28;20110;-76
2023/08/01 05:06:55;;;;;;;34.85;17.88;;;;;;;15.03;100.00;99734.13;5097010;28;20059;-76
2023/08/01 05:09:20;;;;;;;37.50;17.50;;;;;;;15.05;100.00;99735.84;5090473;28;20387;-76
2023/08/01 05:11:45;;;;;;;31.90;17.33;;;;;;;15.03;100.00;99730.59;5114900;28;20028;-76
2023/08/01 05:14:11;;;;;;;30.70;16.33;;;;;;;15.05;100.00;99744.78;5115308;28;20157;-76
2023/08/01 05:16:36;;;;;;;32.25;16.55;;;;;;;15.03;100.00;99744.97;5109417;28;20111;-76
2023/08/01 05:19:01;;;;;;;31.42;15.60;;;;;;;15.02;100.00;99745.13;5110334;28;20169;-77
2023/08/01 05:21:27;;;;;;;33.05;16.50;;;;;;;15.01;100.00;99747.00;5102959;28;20046;-76
2023/08/01 05:23:52;;;;;;;29.67;16.27;;;;;;;15.01;100.00;99741.59;5103818;28;20030;-76
2023/08/01 05:26:17;;;;;;;27.77;15.48;;;;;;;15.02;100.00;99743.28;5087280;28;20097;-76
2023/08/01 05:28:42;;;;;;;27.88;15.60;;;;;;;15.04;100.00;99751.22;5095174;28;20093;-76
2023/08/01 05:31:08;;;;;;;33.78;15.68;;;;;;;15.03;100.00;99744.97;5078254;28;20024;-76
2023/08/01 05:33:33;;;;;;;29.60;15.25;;;;;;;15.01;100.00;99744.28;5089846;28;20032;-76
2023/08/01 05:35:58;;;;;;;32.38;15.68;;;;;;;15.05;100.00;99750.19;5087241;28;20037;-77
2023/08/01 05:38:24;;;;;;;31.05;14.90;;;;;;;15.05;100.00;99744.78;5088692;28;20103;-77
2023/08/01 05:40:49;;;;;;;29.65;16.65;;;;;;;15.06;100.00;99753.78;5082512;28;20056;-76
2023/08/01 05:43:14;;;;;;;31.13;15.10;;;;;;;15.11;100.00;99751.38;5086284;28;20061;-77
2023/08/01 05:45:40;;;;;;;34.80;15.48;;;;;;;15.14;100.00;99746.50;5089373;28;20052;-77
2023/08/01 05:48:05;;;;;;;30.95;16.98;;;;;;;15.17;100.00;99756.16;5087774;28;20510;-77
2023/08/01 05:50:30;;;;;;;34.47;16.45;;;;;;;15.20;100.00;99755.81;5090633;28;20028;-77
2023/08/01 05:52:56;;;;;;;29.17;14.73;;;;;;;15.23;100.00;99750.06;5090197;28;20545;-77
2023/08/01 05:55:21;;;;;;;28.30;16.48;;;;;;;15.24;100.00;99770.66;5094766;28;20475;-77
2023/08/01 05:57:48;;;;;;;28.20;14.02;;;;;;;15.24;100.00;99759.84;5094533;28;20020;-77
2023/08/01 06:00:14;;;;;;;27.35;14.73;;;;;;;15.27;100.00;99767.66;5093496;28;20023;-77
2023/08/01 06:02:40;;;;;;;27.90;14.95;;;;;;;15.30;100.00;99767.31;5091116;28;20028;-77
2023/08/01 06:05:05;;;;;;;28.00;14.80;;;;;;;15.35;100.00;99772.22;5088083;28;20032;-77
2023/08/01 06:07:31;;;;;;;30.23;14.82;;;;;;;15.37;100.00;99765.63;5085646;28;20458;-77
2023/08/01 06:09:56;;;;;;;28.90;15.02;;;;;;;15.45;100.00;99762.03;5085960;28;20119;-76
2023/08/01 06:12:21;;;;;;;31.02;13.98;;;;;;;15.51;100.00;99768.63;5086648;28;20022;-76
2023/08/01 06:14:48;;;;;;;28.85;14.68;;;;;;;15.55;100.00;99773.53;5084666;28;20386;-76
2023/08/01 06:17:13;;;;;;;28.05;13.80;;;;;;;15.63;100.00;99775.38;5084420;28;20055;-76
2023/08/01 06:19:39;;;;;;;27.92;13.85;;;;;;;15.66;100.00;99777.75;5095136;28;20020;-76
2023/08/01 06:22:04;;;;;;;29.50;13.02;;;;;;;15.68;100.00;99774.84;5090358;28;20027;-76
2023/08/01 06:24:30;;;;;;;29.95;14.50;;;;;;;15.68;100.00;99778.44;5090146;28;20031;-76
2023/08/01 06:26:55;;;;;;;26.65;14.52;;;;;;;15.70;100.00;99781.81;5082977;28;20031;-76
2023/08/01 06:29:20;;;;;;;30.23;15.48;;;;;;;15.69;100.00;99782.81;5086476;28;20012;-76
2023/08/01 06:31:46;;;;;;;31.65;14.57;;;;;;;15.68;100.00;99782.97;5084330;28;20036;-76
2023/08/01 06:34:11;;;;;;;29.95;14.82;;;;;;;15.69;100.00;99774.69;5084598;28;20032;-76
2023/08/01 06:36:36;;;;;;;27.23;13.65;;;;;;;15.68;100.00;99778.44;5085488;28;20020;-76
2023/08/01 06:39:03;;;;;;;27.27;15.13;;;;;;;15.75;100.00;99788.56;5082538;28;20210;-76
2023/08/01 06:41:28;;;;;;;27.55;13.98;;;;;;;15.77;100.00;99786.53;5083580;28;20471;-76
2023/08/01 06:43:53;;;;;;;26.33;13.30;;;;;;;15.79;100.00;99784.53;5081084;28;20031;-76
2023/08/01 06:46:18;;;;;;;26.15;14.30;;;;;;;15.87;100.00;99784.50;5097969;28;20032;-76
2023/08/01 06:48:44;;;;;;;25.42;13.82;;;;;;;15.89;100.00;99786.03;5105017;28;20048;-75
2023/08/01 06:51:09;;;;;;;29.45;14.60;;;;;;;15.92;100.00;99790.25;5109130;28;20019;-78
2023/08/01 06:53:34;;;;;;;28.67;13.57;;;;;;;15.96;100.00;99794.31;5089466;28;20042;-77
2023/08/01 06:56:00;;;;;;;25.42;12.25;;;;;;;15.98;100.00;99797.69;5118386;28;20047;-76
2023/08/01 06:58:25;;;;;;;27.17;12.48;;;;;;;15.97;100.00;99804.13;5108825;28;20040;-76
2023/08/01 07:00:50;;;;;;;26.63;13.05;;;;;;;15.99;100.00;99802.09;5083513;28;20027;-76
2023/08/01 07:03:16;;;;;;;28.52;12.00;;;;;;;15.94;100.00;99801.75;5092396;28;20036;-76
2023/08/01 07:05:42;;;;;;;23.55;12.18;;;;;;;15.92;100.00;99809.22;5097723;28;20024;-76
2023/08/01 07:08:07;;;;;;;26.02;11.60;;;;;;;15.97;100.00;99811.41;5109704;28;20494;-76
2023/08/01 07:10:36;;;;;;;25.50;11.65;;;;;;;16.03;100.00;99808.88;5084341;28;20108;-75
2023/08/01 07:13:04;;;;;;;27.65;11.23;;;;;;;16.09;100.00;99815.44;5082143;28;20028;-74
2023/08/01 07:15:30;;;;;;;26.90;11.02;;;;;;;16.10;100.00;99816.28;5079915;28;20023;-79
2023/08/01 07:17:55;;;;;;;26.58;10.48;;;;;;;16.10;100.00;99817.13;5075489;28;20033;-74
2023/08/01 07:20:21;;;;;;;21.90;10.05;;;;;;;16.14;100.00;99806.81;5080419;28;20020;-75
2023/08/01 07:22:46;;;;;;;23.98;10.25;;;;;;;16.21;100.00;99807.81;5076970;28;20067;-76
2023/08/01 07:25:11;;;;;;;26.60;9.95;;;;;;;16.21;100.00;99803.22;5089725;28;20482;-76
2023/08/01 07:27:37;;;;;;;21.73;9.50;;;;;;;16.23;100.00;99800.31;5094981;28;20028;-78
2023/08/01 07:30:04;;;;;;;20.75;8.95;;;;;;;16.20;100.00;99806.94;5098542;28;20055;-75
2023/08/01 07:32:29;;;;;;;20.83;8.68;;;;;;;16.21;100.00;99810.50;5092214;28;20032;-72
2023/08/01 07:34:54;;;;;;;20.73;8.88;;;;;;;16.25;100.00;99804.56;5103975;28;20068;-74
2023/08/01 07:37:20;;;;;;;23.55;9.20;;;;;;;16.28;100.00;99811.47;5097525;28;20471;-78
2023/08/01 07:39:45;;;;;;;21.05;9.05;;;;;;;16.35;100.00;99815.19;5079799;28;20053;-77
2023/08/01 07:42:10;;;;;;;24.33;8.55;;;;;;;16.37;100.00;99812.28;5090826;28;20030;-74
2023/08/01 07:44:35;;;;;;;20.55;8.45;;;;;;;16.39;100.00;99812.97;5097251;28;20087;-79
2023/08/01 07:47:01;;;;;;;23.63;7.68;;;;;;;16.36;100.00;99821.47;5095274;28;20119;-78
2023/08/01 07:49:26;;;;;;;19.20;7.85;;;;;;;16.39;100.00;99823.81;5104263;28;20378;-80
2023/08/01 07:51:51;;;;;;;22.77;7.53;;;;;;;16.49;100.00;99834.47;5089528;28;20027;-77
2023/08/01 07:54:17;;;;;;;21.38;6.28;;;;;;;16.57;100.00;99820.84;5095263;28;20020;-70
2023/08/01 07:56:43;;;;;;;20.85;6.32;;;;;;;16.62;100.00;99823.03;5092958;28;20119;-75
2023/08/01 07:59:10;;;;;;;22.30;5.72;;;;;;;16.67;100.00;99831.50;5081818;28;20364;-74
2023/08/01 08:01:35;;;;;;;18.40;6.07;;;;;;;16.70;100.00;99823.84;5078682;28;20034;-73
2023/08/01 08:04:00;;;;;;;19.98;6.65;;;;;;;16.70;100.00;99815.69;5093774;28;20107;-72
2023/08/01 08:06:26;;;;;;;17.65;6.10;;;;;;;16.69;100.00;99822.16;5098509;28;20027;-72
2023/08/01 08:08:51;;;;;;;22.70;6.70;;;;;;;16.70;100.00;99821.13;5083655;28;20116;-70
2023/08/01 08:11:16;;;;;;;19.98;6.35;;;;;;;16.72;100.00;99827.22;5094138;28;20108;-70
2023/08/01 08:13:42;;;;;;;19.02;6.28;;;;;;;16.77;100.00;99830.25;5087273;28;20649;-70
2023/08/01 08:16:07;;;;;;;22.33;7.18;;;;;;;16.81;100.00;99827.16;5104228;28;20019;-70
2023/08/01 08:18:33;;;;;;;18.73;6.47;;;;;;;16.89;100.00;99824.44;5092503;28;20027;-70
2023/08/01 08:20:58;;;;;;;20.48;6.28;;;;;;;16.96;100.00;99824.59;5093392;28;20016;-70
2023/08/01 08:23:23;;;;;;;22.15;7.05;;;;;;;17.08;100.00;99823.97;5093463;28;20035;-70
2023/08/01 08:25:49;;;;;;;20.15;6.95;;;;;;;17.12;100.00;99830.75;5091637;28;20035;-70
2023/08/01 08:28:16;;;;;;;16.80;5.93;;;;;;;17.16;100.00;99831.25;5092232;28;20464;-70
2023/08/01 08:30:41;;;;;;;16.73;6.53;;;;;;;17.25;100.00;99830.16;5089590;28;20024;-70
2023/08/01 08:33:07;;;;;;;17.25;7.18;;;;;;;17.30;100.00;99837.75;5092796;28;20035;-71
2023/08/01 08:35:34;;;;;;;25.80;7.35;;;;;;;17.31;100.00;99836.72;5103150;28;20024;-70
2023/08/01 08:38:03;;;;;;;19.25;6.63;;;;;;;17.32;100.00;99830.28;5099763;28;20618;-71
2023/08/01 08:40:31;;;;;;;17.40;6.38;;;;;;;17.31;100.00;99828.56;5110710;28;20051;-75
2023/08/01 08:43:00;;;;;;;16.65;5.65;;;;;;;17.23;100.00;99837.63;5097862;28;20020;-72
2023/08/01 08:45:27;;;;;;;;;;;;;;;17.24;100.00;99843.91;5116357;28;20058;-72
2023/08/01 08:47:59;;;;;;;20.75;6.55;;;;;;;17.04;100.00;99859.81;5106617;28;19927;-73
2023/08/01 08:50:26;;;;;;;21.58;7.30;;;;;;;16.95;100.00;99850.88;5102569;28;20016;-72
2023/08/01 08:52:52;;;;;;;17.75;5.35;;;;;;;16.82;100.00;99866.84;5108490;28;20030;-73
2023/08/01 08:55:21;;;;;;;18.55;5.80;;;;;;;16.69;100.00;99868.28;5089114;28;20028;-73
2023/08/01 08:57:50;;;;;;;18.00;4.93;;;;;;;16.64;100.00;99853.56;5081524;28;20162;-73
2023/08/01 09:00:17;;;;;;;16.83;5.10;;;;;;;16.54;100.00;99861.91;5089287;28;20084;-73
2023/08/01 09:02:42;;;;;;;16.65;5.32;;;;;;;16.52;100.00;99861.25;5084254;28;20028;-73
2023/08/01 09:05:07;;;;;;;13.88;4.15;;;;;;;16.47;100.00;99860.91;5089015;28;20035;-73
2023/08/01 09:07:36;;;;;;;13.98;4.22;;;;;;;16.42;100.00;99862.28;5093197;28;20032;-73
2023/08/01 09:10:01;;;;;;;14.52;4.15;;;;;;;16.39;100.00;99862.63;5079583;28;20028;-73
2023/08/01 09:12:27;;;;;;;15.55;3.72;;;;;;;16.36;100.00;99868.41;5100032;28;20364;-72
2023/08/01 09:14:55;;;;;;;17.98;4.35;;;;;;;16.30;100.00;99866.38;5115455;28;20030;-72
2023/08/01 09:17:21;;;;;;;14.65;4.57;;;;;;;16.35;100.00;99871.28;5121043;28;20058;-74
2023/08/01 09:19:46;;;;;;;15.63;4.15;;;;;;;16.35;100.00;99874.00;5112360;28;20008;-74
2023/08/01 09:22:12;;;;;;;15.25;4.30;;;;;;;16.30;100.00;99871.81;5107290;28;20016;-71
2023/08/01 09:24:38;;;;;;;16.98;4.90;;;;;;;16.27;100.00;99887.56;5101971;28;20024;-75
2023/08/01 09:27:04;;;;;;;14.98;4.75;;;;;;;16.23;100.00;99890.63;5101713;28;20029;-73
2023/08/01 09:29:31;;;;;;;19.35;5.45;;;;;;;16.17;100.00;99888.63;5111920;28;20039;-73
2023/08/01 09:31:57;;;;;;;15.43;5.10;;;;;;;16.15;100.00;99887.09;5120126;28;20036;-73
2023/08/01 09:34:26;;;;;;;13.68;3.75;;;;;;;16.00;100.00;99887.81;5113881;28;20028;-72
2023/08/01 09:36:58;;;;;;;9.43;3.33;;;;;;;15.87;100.00;99893.75;5096605;28;20041;-72
2023/08/01 09:39:23;;;;;;;13.10;3.10;;;;;;;15.80;100.00;99889.16;5115396;28;20020;-72
2023/08/01 09:41:59;;;;;;;10.73;2.90;;;;;;;15.80;100.00;99889.16;5105514;28;20040;-72
2023/08/01 09:44:27;;;;;;;8.07;2.60;;;;;;;15.62;100.00;99878.47;5108915;28;20047;-71
2023/08/01 09:47:11;;;;;;;11.50;2.88;;;;;;;15.59;100.00;99890.47;5105624;28;20039;-72
2023/08/01 09:49:47;;;;;;;8.55;2.85;;;;;;;15.55;100.00;99887.28;5108359;28;20050;-72
2023/08/01 09:52:13;;;;;;;11.27;3.63;;;;;;;15.58;100.00;99885.25;5119158;28;20379;-72
2023/08/01 09:54:38;;;;;;;14.35;3.90;;;;;;;15.63;100.00;99891.00;5116901;28;20024;-72
2023/08/01 09:57:06;;;;;;;16.33;3.67;;;;;;;15.66;100.00;99893.38;5110701;28;20032;-71
2023/08/01 09:59:33;;;;;;;14.88;3.92;;;;;;;15.69;100.00;99893.03;5119139;28;20023;-72
2023/08/01 10:02:01;;;;;;;14.38;4.00;;;;;;;15.80;100.00;99892.72;5101480;28;20035;-73
2023/08/01 10:04:31;;;;;;;15.65;4.43;;;;;;;15.91;100.00;99888.81;5112795;28;20029;-73
2023/08/01 10:07:05;;;;;;;15.60;4.65;;;;;;;16.03;100.00;99890.19;5104114;28;20020;-72
2023/08/01 10:09:31;;;;;;;15.13;4.55;;;;;;;16.17;100.00;99893.19;5118666;28;20011;-71
2023/08/01 10:11:58;;;;;;;14.32;5.05;;;;;;;16.34;100.00;99897.56;5114208;28;20063;-73
2023/08/01 10:14:24;;;;;;;14.88;4.80;;;;;;;16.47;100.00;99898.88;5094549;28;20483;-71
2023/08/01 10:16:51;;;;;;;17.55;4.68;;;;;;;16.64;100.00;99896.97;5109921;28;20032;-72
2023/08/01 10:19:17;;;;;;;16.08;4.22;;;;;;;16.71;100.00;99901.50;5103970;28;20107;-73
2023/08/01 10:21:44;;;;;;;17.70;5.35;;;;;;;16.85;100.00;99893.63;5108006;28;20536;-75
2023/08/01 10:24:11;;;;;;;17.15;5.13;;;;;;;16.89;100.00;99892.28;5078378;28;20024;-72
2023/08/01 10:26:36;;;;;;;14.55;4.38;;;;;;;16.94;100.00;99896.19;5087536;28;20394;-74
2023/08/01 10:29:02;;;;;;;17.70;4.63;;;;;;;16.95;100.00;99899.72;5081757;28;20258;-70
2023/08/01 10:31:28;;;;;;;16.70;5.22;;;;;;;16.93;100.00;99904.50;5078572;28;20044;-71
2023/08/01 10:34:07;;;;;;;12.98;4.43;;;;;;;16.92;100.00;99909.06;5085938;28;20123;-72
2023/08/01 10:36:32;;;;;;;19.45;5.13;;;;;;;16.94;100.00;99903.44;5086083;28;20024;-71
2023/08/01 10:39:00;;;;;;;13.45;4.28;;;;;;;16.89;100.00;99901.28;5086931;28;20031;-70
2023/08/01 10:41:31;;;;;;;17.98;5.18;;;;;;;16.92;100.00;99905.50;5086862;28;20024;-71
2023/08/01 10:44:05;;;;;;;12.48;4.03;;;;;;;16.93;100.00;99909.94;5091594;28;20035;-77
2023/08/01 10:46:54;;;;;;;19.30;5.05;;;;;;;16.94;100.00;99917.03;5083244;28;20044;-81
2023/08/01 10:49:32;;;;;;;17.67;4.60;;;;;;;16.89;100.00;99912.13;5083061;28;20012;-78
2023/08/01 10:51:57;;;;;;;16.98;4.43;;;;;;;16.87;100.00;99908.75;5082372;28;20031;-79
2023/08/01 10:54:25;;;;;;;16.88;4.63;;;;;;;16.89;100.00;99914.84;5084526;28;20062;-77
2023/08/01 10:56:58;;;;;;;15.48;4.80;;;;;;;16.93;100.00;99918.06;5081898;28;20457;-79
2023/08/01 10:59:24;;;;;;;16.30;4.68;;;;;;;16.95;100.00;99921.44;5082730;28;20028;-77
2023/08/01 11:01:52;;;;;;;13.75;4.30;;;;;;;16.96;100.00;99941.31;5087295;28;20028;-79
2023/08/01 11:04:21;;;;;;;19.08;4.32;;;;;;;16.96;100.00;99931.28;5081302;28;20039;-77
2023/08/01 11:06:49;;;;;;;19.02;4.43;;;;;;;16.95;100.00;99937.72;5090982;28;20026;-78
2023/08/01 11:09:40;;;;;;;14.07;4.40;;;;;;;16.95;100.00;99937.72;5084271;28;20444;-76